Flugwetter

[source: ADDS]
METAR
LOWL 192220Z AUTO 25004KT 9999 NSC 19/10 Q1015 =
TAF
TAF LOWL 191715Z 1918/2018 28010KT 9999 FEW060 TX30/2015Z TN14/2004Z BECMG 1918/1920 VRB02KT =